Terminal Aerodrome Forecast
Issued by NWS Cleveland, OH

Home | Current Version | Previous Version | Text Only | Print | Product List | Glossary On
Versions: 1 2 3 4 5 6 7 8 9 10 11 12
000
FTUS41 KCLE 051729
TAFYNG
TAF
KYNG 051729Z 0518/0618 11004KT P6SM BKN250
     FM060900 11003KT 5SM BR SCT100 BKN200
     FM061500 17004KT 4SM HZ VCSH OVC100
      TEMPO 0615/0618 6SM -SHRA=

USA.gov is the U.S. government's official web portal to all federal, state and local government web resources and services.